Norvelt, Pennsylvania
Current Conditions -  °F | °C
As of 6:45 AM on Thursday 27 Nov 2014 (Local Time) from KLBE Reporting Station
Haze Haze  
Wind Chill: 26°   Ceiling: 1000
Heat Index: 32°   Visibility: 3mi
Dew Point: 32°   Wind: 7mph
Humidity: 100%   Direction: 270°W
Pressure: 30.03"   Gusts: NA
Location:  40.21°N, 79.5°W
Report Text: KLBE 271145Z 27006KT 3SM BR SCT006 BKN010 OVC028 00/00 A3003
Loading
Personal Weather Stations






























Interactive Weather Map New forecast layout! Learn more

10-Day Weather Forecast

Advertisements
Track Severe Weather on mobile